Time;durP1;ratioP1;P1;durP2;ratioP2;P2;SDS_P1;SDS_P2;PMS_P1;PMS_P2;Temp;Humidity;BMP_temperature;BMP_pressure;BME280_temperature;BME280_humidity;BME280_pressure;Samples;Min_cycle;Max_cycle;Signal;HPM_P1;HPM_P2
2023/02/09 00:02:13;;;;;;;;;;;;;;;0.74;59.61;101839.84;6088338;23;19937;-81
2023/02/09 00:04:41;;;;;;;;;;;;;;;0.76;59.98;101845.97;6112097;23;19913;-80
2023/02/09 00:07:09;;;;;;;;;;;;;;;0.75;58.91;101839.06;6086873;23;19975;-81
2023/02/09 00:09:35;;;;;;;;;;;;;;;0.75;59.55;101839.94;6136571;23;19936;-81
2023/02/09 00:14:45;;;;;;;;;;;;;;;0.80;59.48;101835.09;6108982;23;20334;-80
2023/02/09 00:17:14;;;;;;;;;;;;;;;0.83;59.09;101834.41;6134132;23;19912;-81
2023/02/09 00:19:40;;;;;;;;;;;;;;;0.80;59.23;101837.66;6134292;23;19920;-81
2023/02/09 00:22:06;;;;;;;;;;;;;;;0.75;58.95;101832.25;6135111;23;19912;-79
2023/02/09 00:24:32;;;;;;;;;;;;;;;0.74;59.32;101830.47;6085407;23;20240;-81
2023/02/09 00:27:00;;;;;;;;;;;;;;;0.80;59.64;101829.97;6114634;23;19917;-81
2023/02/09 00:29:26;;;;;;;;;;;;;;;0.85;59.83;101825.16;6113851;23;19917;-80
2023/02/09 00:31:53;;;;;;;;;;;;;;;0.84;59.09;101824.25;6088981;23;19989;-81
2023/02/09 00:34:19;;;;;;;;;;;;;;;0.84;59.84;101826.81;6112283;23;19913;-81
2023/02/09 00:36:49;;;;;;;;;;;;;;;0.87;59.90;101819.31;6134710;23;20278;-80
2023/02/09 00:39:16;;;;;;;;;;;;;;;0.87;59.16;101818.44;6136404;23;19912;-82
2023/02/09 00:44:31;;;;;;;;;;;;;;;0.98;60.19;101817.44;6136224;23;19924;-81
2023/02/09 00:47:00;;;;;;;;;;;;;;;0.94;59.31;101809.47;6136785;23;19917;-80
2023/02/09 00:49:26;;;;;;;;;;;;;;;0.94;59.72;101807.75;6087444;23;19919;-79
2023/02/09 00:51:52;;;;;;;;;;;;;;;1.01;59.49;101809.94;6111172;23;19951;-80
2023/02/09 00:54:21;;;;;;;;;;;;;;;1.05;59.84;101801.63;6139315;23;19913;-80
2023/02/09 00:56:49;;;;;;;;;;;;;;;1.12;59.38;101802.91;6113153;23;20360;-81
2023/02/09 00:59:20;;;;;;;;;;;;;;;1.18;59.21;101798.16;6089072;23;19913;-82
2023/02/09 01:01:49;;;;;;;;;;;;;;;1.19;59.48;101799.03;6137387;23;20389;-81
2023/02/09 01:04:22;;;;;;;;;;;;;;;1.18;59.25;101794.69;6063968;23;19924;-79
2023/02/09 01:06:48;;;;;;;;;;;;;;;1.21;60.00;101797.44;6110571;23;19968;-80
2023/02/09 01:09:24;;;;;;;;;;;;;;;1.19;59.14;101793.91;6084638;23;19936;-80
2023/02/09 01:11:52;;;;;;;;;;;;;;;1.18;59.83;101795.59;6134784;23;19948;-80
2023/02/09 01:14:22;;;;;;;;;;;;;;;1.15;59.78;101792.84;6108547;23;19912;-82
2023/02/09 01:16:50;;;;;;;;;;;;;;;1.20;59.61;101801.69;6108862;23;20038;-79
2023/02/09 01:19:20;;;;;;;;;;;;;;;1.21;59.38;101802.56;6109823;23;19920;-81
2023/02/09 01:21:47;;;;;;;;;;;;;;;1.22;59.74;101800.88;6086000;23;19951;-81
2023/02/09 01:24:17;;;;;;;;;;;;;;;1.22;59.54;101801.78;6109630;23;19919;-78
2023/02/09 01:26:44;;;;;;;;;;;;;;;1.22;59.37;101803.44;6132253;23;19916;-80
2023/02/09 01:29:14;;;;;;;;;;;;;;;1.27;59.70;101796.94;6108055;23;19920;-79
2023/02/09 01:31:40;;;;;;;;;;;;;;;1.24;59.42;101796.72;6132004;23;19913;-81
2023/02/09 01:34:11;;;;;;;;;;;;;;;1.29;60.07;101798.81;6108974;23;19995;-83
2023/02/09 01:36:37;;;;;;;;;;;;;;;1.34;60.00;101792.25;6133514;23;19917;-80
2023/02/09 01:39:04;;;;;;;;;;;;;;;1.38;59.90;101789.88;6134355;23;19913;-79
2023/02/09 01:41:30;;;;;;;;;;;;;;;1.44;60.17;101795.38;6109671;23;19939;-79
2023/02/09 01:44:01;;;;;;;;;;;;;;;1.42;59.75;101791.84;6136327;23;19924;-80
2023/02/09 01:46:28;;;;;;;;;;;;;;;1.41;60.09;101790.97;6109586;23;19920;-81
2023/02/09 01:49:14;;;;;;;;;;;;;;;1.39;60.30;101787.44;6110041;23;19955;-80
2023/02/09 01:51:45;;;;;;;;;;;;;;;1.32;60.10;101795.53;6135153;23;20043;-81
2023/02/09 01:54:13;;;;;;;;;;;;;;;1.27;59.70;101796.94;6085130;23;19999;-80
2023/02/09 01:56:44;;;;;;;;;;;;;;;1.21;60.58;101794.88;6135197;23;19913;-80
2023/02/09 01:59:12;;;;;;;;;;;;;;;1.22;60.40;101803.44;6134758;23;20098;-82
2023/02/09 02:01:39;;;;;;;;;;;;;;;1.28;60.49;101793.56;6134136;23;19917;-81
2023/02/09 02:04:06;;;;;;;;;;;;;;;1.27;60.37;101799.50;6139462;23;19960;-82
2023/02/09 02:06:32;;;;;;;;;;;;;;;1.31;60.55;101792.09;6139752;23;19922;-79
2023/02/09 02:09:01;;;;;;;;;;;;;;;1.36;60.79;101800.06;6138454;23;20310;-81
2023/02/09 02:11:36;;;;;;;;;;;;;;;1.41;60.67;101787.50;6137690;23;19912;-81
2023/02/09 02:14:03;;;;;;;;;;;;;;;1.42;60.36;101796.97;6137405;23;20207;-80
2023/02/09 02:16:57;;;;;;;;;;;;;;;1.47;60.69;101793.88;6101193;23;19912;-80
2023/02/09 02:19:42;;;;;;;;;;;;;;;1.49;60.86;101792.28;6136914;23;20298;-80
2023/02/09 02:22:18;;;;;;;;;;;;;;;1.46;60.74;101799.81;6112745;23;19934;-81
2023/02/09 02:24:44;;;;;;;;;;;;;;;1.37;60.61;101796.72;6162174;23;20338;-80
2023/02/09 02:27:29;;;;;;;;;;;;;;;1.23;60.83;101794.97;6136448;23;19939;-81
2023/02/09 02:30:01;;;;;;;;;;;;;;;1.09;61.00;101786.44;6135972;23;19919;-79
2023/02/09 02:32:28;;;;;;;;;;;;;;;1.16;61.07;101804.88;6136791;23;19919;-79
2023/02/09 02:35:07;;;;;;;;;;;;;;;1.15;60.63;101807.31;6136705;23;19912;-78
2023/02/09 02:37:36;;;;;;;;;;;;;;;1.17;61.21;101803.16;6137116;23;20041;-78
2023/02/09 02:40:04;;;;;;;;;;;;;;;1.12;60.91;101796.88;6163010;23;20413;-80
2023/02/09 02:42:50;;;;;;;;;;;;;;;0.98;60.54;101794.34;6113872;23;20333;-80
2023/02/09 02:45:32;;;;;;;;;;;;;;;0.96;61.24;101798.50;6138100;23;19932;-81
2023/02/09 02:47:58;;;;;;;;;;;;;;;0.96;60.97;101793.38;6164099;23;19966;-81
2023/02/09 02:50:26;;;;;;;;;;;;;;;0.98;61.00;101793.47;6138222;23;20343;-80
2023/02/09 02:52:58;;;;;;;;;;;;;;;0.95;61.35;101796.72;6137001;23;19912;-80
2023/02/09 02:55:25;;;;;;;;;;;;;;;0.94;60.84;101799.19;6114506;23;19920;-82
2023/02/09 02:57:53;;;;;;;;;;;;;;;0.99;61.76;101796.13;6164513;23;19912;-81
2023/02/09 03:00:30;;;;;;;;;;;;;;;1.02;61.45;101792.84;6112095;23;19923;-82
2023/02/09 03:02:59;;;;;;;;;;;;;;;1.04;61.15;101793.84;6137205;23;19936;-81
2023/02/09 03:05:25;;;;;;;;;;;;;;;1.06;62.12;101794.81;6113551;23;19912;-80
2023/02/09 03:07:51;;;;;;;;;;;;;;;1.08;61.58;101795.81;6111798;23;20239;-80
2023/02/09 03:10:36;;;;;;;;;;;;;;;1.07;61.53;101795.72;6163288;23;19912;-79
2023/02/09 03:13:15;;;;;;;;;;;;;;;1.15;61.88;101797.06;6163762;23;19939;-82
2023/02/09 03:16:04;;;;;;;;;;;;;;;1.16;61.27;101793.72;6142862;23;19960;-81
2023/02/09 03:18:38;;;;;;;;;;;;;;;1.23;62.20;101794.97;6115694;23;19912;-80
2023/02/09 03:21:15;;;;;;;;;;;;;;;1.28;61.59;101801.25;6156292;23;19926;-79
2023/02/09 03:23:51;;;;;;;;;;;;;;;1.31;61.89;101799.78;6182314;23;19925;-80
2023/02/09 03:26:19;;;;;;;;;;;;;;;1.32;61.33;101788.75;6130897;23;19920;-80
2023/02/09 03:28:48;;;;;;;;;;;;;;;1.30;61.59;101802.25;6131880;23;19905;-80
2023/02/09 03:31:17;;;;;;;;;;;;;;;1.30;61.70;101800.59;6181724;23;19912;-79
2023/02/09 03:33:43;;;;;;;;;;;;;;;1.32;62.20;101806.69;6181854;23;19909;-78
2023/02/09 03:36:14;;;;;;;;;;;;;;;1.35;61.98;101801.72;6182223;23;19988;-80
2023/02/09 03:38:40;;;;;;;;;;;;;;;1.40;62.65;101794.34;6182049;23;19948;-80
2023/02/09 03:41:06;;;;;;;;;;;;;;;1.42;62.23;101803.00;6155591;23;19916;-78
2023/02/09 03:46:20;;;;;;;;;;;;;;;1.54;62.44;101791.69;6141492;23;19960;-81
2023/02/09 03:48:46;;;;;;;;;;;;;;;1.54;62.43;101787.47;6117209;23;20313;-80
2023/02/09 03:51:12;;;;;;;;;;;;;;;1.59;62.47;101788.59;6140425;23;19959;-79
2023/02/09 03:53:39;;;;;;;;;;;;;;;1.63;62.18;101790.56;6165384;23;19923;-80
2023/02/09 03:56:08;;;;;;;;;;;;;;;1.67;62.19;101789.06;6140737;23;19912;-80
2023/02/09 03:59:04;;;;;;;;;;;;;;;1.71;62.44;101785.88;6165905;23;19918;-80
2023/02/09 04:01:34;;;;;;;;;;;;;;;1.68;62.29;101782.25;6170180;23;19936;-78
2023/02/09 04:04:03;;;;;;;;;;;;;;;1.71;62.47;101783.31;6166919;23;19924;-81
2023/02/09 04:06:34;;;;;;;;;;;;;;;1.75;62.32;101790.41;6168256;23;19940;-82
2023/02/09 04:09:08;;;;;;;;;;;;;;;1.78;62.14;101788.03;6150875;23;19912;-79
2023/02/09 04:11:36;;;;;;;;;;;;;;;1.79;62.03;101786.31;6138779;23;19957;-80
2023/02/09 04:14:27;;;;;;;;;;;;;;;1.79;62.73;101792.34;6137114;23;19931;-79
2023/02/09 04:16:58;;;;;;;;;;;;;;;1.82;62.39;101786.50;6157051;23;19921;-81
2023/02/09 04:19:24;;;;;;;;;;;;;;;1.85;62.80;101783.25;6175768;23;20350;-79
2023/02/09 04:21:50;;;;;;;;;;;;;;;1.86;62.92;101777.31;6135784;23;19912;-81
2023/02/09 04:24:24;;;;;;;;;;;;;;;1.86;62.81;101774.75;6161687;23;19923;-81
2023/02/09 04:26:51;;;;;;;;;;;;;;;1.85;62.90;101779.00;6139458;23;19916;-80
2023/02/09 04:29:16;;;;;;;;;;;;;;;1.86;62.83;101782.47;6160021;23;20055;-81
2023/02/09 04:31:43;;;;;;;;;;;;;;;1.85;62.39;101781.56;6137668;23;20246;-80
2023/02/09 04:34:09;;;;;;;;;;;;;;;1.82;62.77;101777.94;6134126;23;19912;-83
2023/02/09 04:36:36;;;;;;;;;;;;;;;1.72;62.47;101768.81;6163800;23;19919;-88
2023/02/09 04:39:02;;;;;;;;;;;;;;;1.70;62.42;101773.84;6138045;23;20062;-85
2023/02/09 04:41:28;;;;;;;;;;;;;;;1.67;62.27;101776.22;6084170;23;19989;-84
2023/02/09 04:43:54;;;;;;;;;;;;;;;1.62;62.34;101767.38;6131391;23;20183;-80
2023/02/09 04:46:19;;;;;;;;;;;;;;;1.50;62.73;101760.72;6163850;23;20000;-84
2023/02/09 04:48:47;;;;;;;;;;;;;;;1.39;62.95;101764.34;6116807;23;19912;-82
2023/02/09 04:51:24;;;;;;;;;;;;;;;1.35;62.81;101770.06;6165598;23;19931;-79
2023/02/09 04:53:50;;;;;;;;;;;;;;;1.37;62.80;101768.47;6141056;23;19913;-81
2023/02/09 04:56:16;;;;;;;;;;;;;;;1.41;62.97;101778.16;6138020;23;20396;-81
2023/02/09 05:01:57;;;;;;;;;;;;;;;1.40;63.50;101766.09;6109036;23;19921;-82
2023/02/09 05:04:23;;;;;;;;;;;;;;;1.38;63.16;101772.81;6129857;23;19919;-81
2023/02/09 05:06:49;;;;;;;;;;;;;;;1.39;63.27;101763.44;6129003;23;19917;-83
2023/02/09 05:09:14;;;;;;;;;;;;;;;1.42;63.27;101771.31;6105524;23;19919;-81
2023/02/09 05:11:40;;;;;;;;;;;;;;;1.46;63.32;101769.00;6127431;23;20258;-86
2023/02/09 05:14:06;;;;;;;;;;;;;;;1.51;63.33;101774.44;6130207;23;19944;-80
2023/02/09 05:16:32;;;;;;;;;;;;;;;1.44;63.13;101778.31;6126691;23;19913;-81
2023/02/09 05:18:58;;;;;;;;;;;;;;;1.43;63.39;101775.66;6125948;23;20302;-86
2023/02/09 05:21:24;;;;;;;;;;;;;;;1.52;63.39;101788.16;6077538;23;19916;-82
2023/02/09 05:23:50;;;;;;;;;;;;;;;1.57;63.47;101773.91;6102467;23;19920;-84
2023/02/09 05:26:16;;;;;;;;;;;;;;;1.53;62.50;101780.56;6124826;23;19917;-82
2023/02/09 05:28:42;;;;;;;;;;;;;;;1.52;63.36;101776.22;6103241;23;19912;-81
2023/02/09 05:31:08;;;;;;;;;;;;;;;1.52;63.30;101780.44;6106281;23;19913;-80
2023/02/09 05:33:33;;;;;;;;;;;;;;;1.51;63.15;101774.44;6134305;23;19912;-80
2023/02/09 05:35:59;;;;;;;;;;;;;;;1.53;63.55;101766.81;6131949;23;19912;-79
2023/02/09 05:38:26;;;;;;;;;;;;;;;1.49;63.17;101769.22;6112844;23;19917;-81
2023/02/09 05:40:52;;;;;;;;;;;;;;;1.52;63.01;101763.38;6137217;23;19953;-83
2023/02/09 05:43:18;;;;;;;;;;;;;;;1.53;63.13;101760.03;6133997;23;19912;-78
2023/02/09 05:45:47;;;;;;;;;;;;;;;1.56;63.43;101760.19;6110015;23;19940;-79
2023/02/09 05:48:26;;;;;;;;;;;;;;;1.59;63.09;101768.06;6106954;23;19917;-86
2023/02/09 05:50:52;;;;;;;;;;;;;;;1.57;63.35;101766.22;6133832;23;20366;-83
2023/02/09 05:53:20;;;;;;;;;;;;;;;1.58;63.56;101778.25;6108312;23;19912;-81
2023/02/09 05:55:49;;;;;;;;;;;;;;;1.62;63.47;101769.94;6133735;23;19913;-82
2023/02/09 05:58:26;;;;;;;;;;;;;;;1.71;63.31;101767.03;6131794;23;19919;-83
2023/02/09 06:01:14;;;;;;;;;;;;;;;1.68;63.30;101774.56;6137434;23;19917;-79
2023/02/09 06:03:59;;;;;;;;;;;;;;;1.67;62.92;101773.66;6089399;23;19913;-80
2023/02/09 06:06:24;;;;;;;;;;;;;;;1.68;63.58;101772.84;6134242;23;19912;-78
2023/02/09 06:08:53;;;;;;;;;;;;;;;1.73;63.01;101771.44;6130847;23;19912;-82
2023/02/09 06:11:19;;;;;;;;;;;;;;;1.73;62.94;101766.31;6133799;23;20393;-80
2023/02/09 06:13:49;;;;;;;;;;;;;;;1.71;62.94;101767.91;6086683;23;19913;-80
2023/02/09 06:16:18;;;;;;;;;;;;;;;1.69;63.46;101768.63;6120824;23;19939;-80
2023/02/09 06:18:56;;;;;;;;;;;;;;;1.67;62.93;101760.81;6114624;23;19920;-79
2023/02/09 06:21:28;;;;;;;;;;;;;;;1.61;63.57;101755.34;6137412;23;19913;-79
2023/02/09 06:23:56;;;;;;;;;;;;;;;1.52;63.12;101757.34;6109010;23;20008;-81
2023/02/09 06:26:24;;;;;;;;;;;;;;;1.53;63.15;101764.25;6134228;23;19940;-79
2023/02/09 06:28:51;;;;;;;;;;;;;;;1.56;63.42;101761.88;6130703;23;19928;-79
2023/02/09 06:31:41;;;;;;;;;;;;;;;;;;;;;
2023/02/09 06:34:14;;;;;;;;;;;;;;;1.67;63.14;101755.69;6137581;23;20335;-79
2023/02/09 06:36:44;;;;;;;;;;;;;;;1.68;63.44;101754.88;6136452;23;19913;-79
2023/02/09 06:39:18;;;;;;;;;;;;;;;1.70;63.26;101749.88;6107679;23;19919;-80
2023/02/09 06:41:59;;;;;;;;;;;;;;;1.76;63.23;101750.22;6136374;23;19944;-78
2023/02/09 06:44:31;;;;;;;;;;;;;;;1.77;63.30;101755.44;6135147;23;19913;-79
2023/02/09 06:47:17;;;;;;;;;;;;;;;1.78;62.72;101762.34;6135666;23;19964;-81
2023/02/09 06:49:49;;;;;;;;;;;;;;;1.80;63.30;101765.88;6113538;23;19912;-79
2023/02/09 06:52:42;;;;;;;;;;;;;;;1.87;62.72;101763.69;6137206;23;19920;-82
2023/02/09 06:55:23;;;;;;;;;;;;;;;1.97;63.14;101758.28;6092500;23;19913;-81
2023/02/09 06:58:04;;;;;;;;;;;;;;;2.05;62.52;101762.19;6138840;23;19936;-79
2023/02/09 07:00:30;;;;;;;;;;;;;;;2.03;62.95;101762.88;6122952;23;19916;-78
2023/02/09 07:03:20;;;;;;;;;;;;;;;2.11;62.76;101762.50;6144966;23;19939;-80
2023/02/09 07:05:58;;;;;;;;;;;;;;;2.14;62.59;101766.94;6140747;23;19935;-80
2023/02/09 07:08:23;;;;;;;;;;;;;;;2.16;62.23;101755.09;6116600;23;19944;-80
2023/02/09 07:11:23;;;;;;;;;;;;;;;2.19;62.55;101755.25;6149085;23;19912;-79
2023/02/09 07:13:51;;;;;;;;;;;;;;;2.16;62.34;101767.94;6140835;23;19939;-79
2023/02/09 07:16:17;;;;;;;;;;;;;;;2.15;62.39;101772.97;6145339;23;19912;-78
2023/02/09 07:18:43;;;;;;;;;;;;;;;2.11;62.87;101761.63;6125461;23;19964;-80
2023/02/09 07:21:11;;;;;;;;;;;;;;;2.10;62.37;101765.00;6172018;23;19912;-80
2023/02/09 07:23:45;;;;;;;;;;;;;;;2.18;62.19;101768.00;6167699;23;19940;-80
2023/02/09 07:26:14;;;;;;;;;;;;;;;2.18;62.36;101753.50;6169028;23;19912;-82
2023/02/09 07:28:39;;;;;;;;;;;;;;;2.22;62.18;101763.13;6119003;23;20301;-81
2023/02/09 07:31:07;;;;;;;;;;;;;;;2.25;62.63;101780.41;6167967;23;19956;-80
2023/02/09 07:33:33;;;;;;;;;;;;;;;2.31;62.49;101769.59;6144710;23;19966;-81
2023/02/09 07:36:01;;;;;;;;;;;;;;;2.34;62.67;101757.78;6138196;23;19920;-82
2023/02/09 07:38:27;;;;;;;;;;;;;;;2.41;62.50;101761.59;6131158;23;20397;-79
2023/02/09 07:40:53;;;;;;;;;;;;;;;2.43;62.42;101754.84;6153609;23;19912;-81
2023/02/09 07:43:19;;;;;;;;;;;;;;;2.49;62.52;101737.19;6150879;23;19948;-80
2023/02/09 07:45:47;;;;;;;;;;;;;;;2.28;62.27;101698.38;6102856;23;19947;-81
2023/02/09 07:48:13;;;;;;;;;;;;;;;2.64;62.22;101751.72;6127014;23;19916;-82
2023/02/09 07:50:39;;;;;;;;;;;;;;;2.73;62.23;101751.31;6160682;23;19912;-80
2023/02/09 07:53:05;;;;;;;;;;;;;;;2.80;61.85;101753.41;6128374;23;19913;-81
2023/02/09 07:55:30;;;;;;;;;;;;;;;2.83;61.90;101754.47;6128413;23;19967;-81
2023/02/09 07:57:56;;;;;;;;;;;;;;;2.78;61.80;101750.75;6129890;23;19924;-81
2023/02/09 08:00:23;;;;;;;;;;;;;;;2.77;61.96;101761.84;6077606;23;19984;-80
2023/02/09 08:02:49;;;;;;;;;;;;;;;2.78;62.13;101757.56;6103461;23;19973;-80
2023/02/09 08:05:27;;;;;;;;;;;;;;;2.76;61.77;101756.63;6127960;23;19912;-82
2023/02/09 08:07:54;;;;;;;;;;;;;;;2.79;61.71;101760.25;6113467;23;19924;-81
2023/02/09 08:10:20;;;;;;;;;;;;;;;2.80;61.18;101772.31;6134166;23;19916;-82
2023/02/09 08:13:04;;;;;;;;;;;;;;;2.80;61.86;101758.53;6131360;23;20326;-83
2023/02/09 08:15:43;;;;;;;;;;;;;;;2.83;61.73;101753.56;6128941;23;19928;-81
2023/02/09 08:18:14;;;;;;;;;;;;;;;2.94;61.65;101752.47;6128166;23;20325;-81
2023/02/09 08:20:42;;;;;;;;;;;;;;;3.03;61.27;101753.75;6130225;23;19917;-81
2023/02/09 08:23:11;;;;;;;;;;;;;;;3.07;61.67;101746.31;6127558;23;19959;-83
2023/02/09 08:25:38;;;;;;;;;;;;;;;3.12;60.97;101743.97;6128117;23;19936;-81
2023/02/09 08:28:04;;;;;;;;;;;;;;;3.17;61.62;101750.25;6105011;23;19917;-83
2023/02/09 08:30:30;;;;;;;;;;;;;;;3.13;60.96;101746.59;6130260;23;19948;-82
2023/02/09 08:32:56;;;;;;;;;;;;;;;3.14;61.09;101745.81;6127437;23;19975;-80
2023/02/09 08:35:22;;;;;;;;;;;;;;;3.21;61.23;101747.00;6129497;23;19912;-82
2023/02/09 08:37:48;;;;;;;;;;;;;;;3.24;61.48;101749.75;6131035;23;19923;-80
2023/02/09 08:40:14;;;;;;;;;;;;;;;3.26;61.12;101753.28;6080922;23;19913;-81
2023/02/09 08:42:40;;;;;;;;;;;;;;;3.25;60.88;101754.09;6128151;23;19990;-80
2023/02/09 08:45:06;;;;;;;;;;;;;;;3.28;60.98;101761.97;6103913;23;19968;-82
2023/02/09 08:47:32;;;;;;;;;;;;;;;3.37;61.24;101753.84;6079758;23;19923;-80
2023/02/09 08:49:58;;;;;;;;;;;;;;;3.40;60.89;101748.84;6128183;23;19912;-81
2023/02/09 08:52:24;;;;;;;;;;;;;;;3.46;61.05;101754.31;6127191;23;19977;-80
2023/02/09 08:54:50;;;;;;;;;;;;;;;3.48;60.54;101744.09;6127289;23;19913;-81
2023/02/09 08:57:15;;;;;;;;;;;;;;;3.50;60.99;101742.50;6129281;23;20243;-82
2023/02/09 08:59:41;;;;;;;;;;;;;;;3.46;60.86;101740.56;6130768;23;19964;-82
2023/02/09 09:02:07;;;;;;;;;;;;;;;3.50;60.56;101741.63;6110485;23;19912;-81
2023/02/09 09:04:33;;;;;;;;;;;;;;;3.59;60.63;101734.34;6128566;23;19921;-81
2023/02/09 09:07:02;;;;;;;;;;;;;;;3.63;60.53;101744.00;6154559;23;20052;-81
2023/02/09 09:09:27;;;;;;;;;;;;;;;3.65;60.95;101741.47;6166995;23;19916;-80
2023/02/09 09:11:53;;;;;;;;;;;;;;;3.63;60.25;101741.41;6158204;23;19912;-80
2023/02/09 09:14:19;;;;;;;;;;;;;;;3.64;60.25;101732.03;6136409;23;20416;-81
2023/02/09 09:16:45;;;;;;;;;;;;;;;3.71;60.24;101734.06;6134782;23;19923;-82
2023/02/09 09:19:10;;;;;;;;;;;;;;;3.76;60.01;101740.34;6132371;23;19943;-83
2023/02/09 09:21:36;;;;;;;;;;;;;;;3.74;60.65;101734.25;6155858;23;19908;-81
2023/02/09 09:24:10;;;;;;;;;;;;;;;3.71;60.00;101734.06;6157453;23;20063;-81
2023/02/09 09:26:56;;;;;;;;;;;;;;;3.71;60.03;101731.50;6133270;23;19916;-86
2023/02/09 09:29:24;;;;;;;;;;;;;;;3.64;59.83;101742.31;6082518;23;19912;-80
2023/02/09 09:32:09;;;;;;;;;;;;;;;3.60;59.92;101743.84;6132675;23;19947;-80
2023/02/09 09:34:35;;;;;;;;;;;;;;;3.52;59.91;101734.88;6131893;23;19972;-82
2023/02/09 09:37:19;;;;;;;;;;;;;;;3.43;60.21;101730.09;6111616;23;19920;-83
2023/02/09 09:39:49;;;;;;;;;;;;;;;3.41;60.12;101726.59;6109887;23;20062;-81
2023/02/09 09:42:30;;;;;;;;;;;;;;;3.41;59.73;101726.59;6133034;23;19913;-82
2023/02/09 09:45:06;;;;;;;;;;;;;;;3.51;59.98;101730.50;6109391;23;19959;-84
2023/02/09 09:47:35;;;;;;;;;;;;;;;3.56;59.79;101727.38;6086933;23;19916;-80
2023/02/09 09:50:02;;;;;;;;;;;;;;;3.68;60.19;101723.63;6161009;23;19964;-80
2023/02/09 09:52:38;;;;;;;;;;;;;;;3.72;59.42;101733.28;6136732;23;19970;-80
2023/02/09 09:56:02;;;;;;;;;;;;;;;3.67;59.19;101722.75;6129203;23;19978;-82
2023/02/09 09:58:31;;;;;;;;;;;;;;;3.63;59.77;101730.25;6178992;23;19912;-81
2023/02/09 10:00:57;;;;;;;;;;;;;;;3.60;59.61;101723.25;6117758;23;19944;-83
2023/02/09 10:03:23;;;;;;;;;;;;;;;3.64;59.64;101709.72;6176855;23;19932;-82
2023/02/09 10:05:51;;;;;;;;;;;;;;;3.63;59.49;101719.97;6178091;23;19912;-82
2023/02/09 10:08:29;;;;;;;;;;;;;;;3.63;59.18;101723.41;6153173;23;20004;-81
2023/02/09 10:11:11;;;;;;;;;;;;;;;3.66;59.65;101718.41;6149864;23;19908;-82
2023/02/09 10:13:48;;;;;;;;;;;;;;;3.71;59.37;101705.75;6178489;23;19960;-84
2023/02/09 10:16:18;;;;;;;;;;;;;;;3.75;59.74;101710.25;6162150;23;19912;-81
2023/02/09 10:18:48;;;;;;;;;;;;;;;3.80;59.70;101707.91;6110477;23;19912;-81
2023/02/09 10:21:15;;;;;;;;;;;;;;;3.77;59.99;101698.34;6159810;23;20002;-80
2023/02/09 10:24:01;;;;;;;;;;;;;;;3.75;59.90;101692.22;6159809;23;20255;-84
2023/02/09 10:26:31;;;;;;;;;;;;;;;3.75;59.38;101698.25;6160270;23;19940;-85
2023/02/09 10:28:58;;;;;;;;;;;;;;;3.71;59.29;101698.94;6159257;23;19919;-84
2023/02/09 10:31:27;;;;;;;;;;;;;;;3.69;59.52;101700.53;6108433;23;19934;-85
2023/02/09 10:34:12;;;;;;;;;;;;;;;3.71;59.33;101700.59;6134932;23;19920;-85
2023/02/09 10:36:40;;;;;;;;;;;;;;;3.79;59.29;101696.72;6160461;23;19931;-87
2023/02/09 10:39:15;;;;;;;;;;;;;;;3.89;59.33;101688.63;6112528;23;19953;-86
2023/02/09 10:41:43;;;;;;;;;;;;;;;4.00;59.03;101683.13;6115002;23;19920;-85
2023/02/09 10:44:26;;;;;;;;;;;;;;;3.99;59.53;101682.22;6165545;23;19916;-84
2023/02/09 10:47:22;;;;;;;;;;;;;;;3.90;58.96;101677.50;6142533;23;19920;-87
2023/02/09 10:50:30;;;;;;;;;;;;;;;3.86;58.78;101679.88;6117152;23;19896;-85
2023/02/09 10:54:00;;;;;;;;;;;;;;;3.82;59.27;101668.56;6143350;23;20330;-86
2023/02/09 10:56:44;;;;;;;;;;;;;;;3.84;59.40;101668.63;6136357;23;19912;-85
2023/02/09 10:59:19;;;;;;;;;;;;;;;3.82;59.04;101672.81;6113707;23;19912;-86
2023/02/09 11:02:01;;;;;;;;;;;;;;;3.97;59.37;101673.56;6108069;23;19939;-85
2023/02/09 11:04:45;;;;;;;;;;;;;;;4.05;59.54;101667.06;6162133;23;20073;-83
2023/02/09 11:07:24;;;;;;;;;;;;;;;4.18;59.23;101665.97;6136811;23;19955;-86
2023/02/09 11:10:02;;;;;;;;;;;;;;;4.29;58.83;101665.59;6137216;23;19962;-86
2023/02/09 11:12:42;;;;;;;;;;;;;;;;;;;;;
2023/02/09 11:15:45;;;;;;;;;;;;;;;4.36;58.20;101675.34;6139972;23;19943;-86
2023/02/09 11:18:32;;;;;;;;;;;;;;;4.33;58.28;101663.22;6163025;23;19944;-84
2023/02/09 11:21:15;;;;;;;;;;;;;;;4.49;58.82;101651.94;6141590;23;20294;-85
2023/02/09 11:24:24;;;;;;;;;;;;;;;;;;;;;
2023/02/09 11:30:41;;;;;;;;;;;;;;;4.83;57.77;101656.00;6083922;23;19920;-83
2023/02/09 11:33:07;;;;;;;;;;;;;;;4.87;57.93;101651.84;6103402;23;19917;-85
2023/02/09 11:35:48;;;;;;;;;;;;;;;4.83;58.13;101650.84;6109267;23;19912;-87
2023/02/09 11:38:41;;;;;;;;;;;;;;;4.81;57.30;101651.59;6141593;23;20319;-85
2023/02/09 11:44:05;;;;;;;;;;;;;;;4.67;57.24;101646.69;6149813;23;19940;-87
2023/02/09 11:47:18;;;;;;;;;;;;;;;4.58;57.56;101645.41;6129921;23;19924;-84
2023/02/09 11:49:56;;;;;;;;;;;;;;;4.35;57.12;101624.63;6168547;23;19921;-84
2023/02/09 11:52:54;;;;;;;;;;;;;;;4.51;57.54;101650.31;6164402;23;19920;-83
2023/02/09 11:55:33;;;;;;;;;;;;;;;4.42;58.06;101652.44;6173277;23;19967;-84
2023/02/09 12:01:32;;;;;;;;;;;;;;;4.07;57.97;101655.16;6145632;23;19924;-84
2023/02/09 12:04:11;;;;;;;;;;;;;;;;;;;;;
2023/02/09 12:06:56;;;;;;;;;;;;;;;3.96;58.71;101648.63;6169658;23;19928;-84
2023/02/09 12:09:53;;;;;;;;;;;;;;;3.94;58.58;101646.75;6145843;23;19940;-81
2023/02/09 12:12:28;;;;;;;;;;;;;;;3.89;58.39;101647.41;6172948;23;19912;-83
2023/02/09 12:15:39;;;;;;;;;;;;;;;3.86;57.89;101643.81;6097620;23;19919;-84
2023/02/09 12:18:18;;;;;;;;;;;;;;;3.83;57.84;101648.81;6144009;23;19912;-84
2023/02/09 12:21:14;;;;;;;;;;;;;;;3.86;58.02;101646.38;6120567;23;19931;-86
2023/02/09 12:23:40;;;;;;;;;;;;;;;3.77;57.87;101633.97;6088224;23;19912;-84
2023/02/09 12:26:45;;;;;;;;;;;;;;;3.77;58.52;101641.69;6121126;23;19912;-81
2023/02/09 12:29:25;;;;;;;;;;;;;;;3.80;58.37;101639.25;6119934;23;19948;-83
2023/02/09 12:32:06;;;;;;;;;;;;;;;3.81;58.16;101646.19;6118489;23;20417;-81
2023/02/09 12:34:41;;;;;;;;;;;;;;;3.82;58.38;101642.78;6167648;23;20277;-86
2023/02/09 12:37:12;;;;;;;;;;;;;;;3.76;58.23;101651.09;6120527;23;20617;-80
2023/02/09 12:39:59;;;;;;;;;;;;;;;3.77;58.55;101651.97;6141921;23;19913;-81
2023/02/09 12:42:27;;;;;;;;;;;;;;;3.76;58.40;101638.22;6131675;23;19913;-81
2023/02/09 12:44:59;;;;;;;;;;;;;;;3.75;58.13;101638.16;6142656;23;19923;-84
2023/02/09 12:47:43;;;;;;;;;;;;;;;3.73;58.25;101640.66;6143210;23;19918;-82
2023/02/09 12:50:23;;;;;;;;;;;;;;;3.73;58.55;101640.66;6167821;23;19935;-87
2023/02/09 12:53:14;;;;;;;;;;;;;;;3.71;58.03;101638.81;6142920;23;19912;-81
2023/02/09 12:55:55;;;;;;;;;;;;;;;3.66;58.02;101630.88;6119821;23;19935;-81
2023/02/09 12:58:40;;;;;;;;;;;;;;;3.64;58.46;101627.31;6124506;23;19912;-81
2023/02/09 13:01:14;;;;;;;;;;;;;;;3.64;58.55;101627.31;6146317;23;19912;-83
2023/02/09 13:03:47;;;;;;;;;;;;;;;3.61;58.19;101634.91;6120983;23;19916;-84
2023/02/09 13:06:32;;;;;;;;;;;;;;;3.55;58.17;101638.06;6163960;23;19959;-84
2023/02/09 13:09:05;;;;;;;;;;;;;;;3.54;58.33;101631.16;6166203;23;19935;-81
2023/02/09 13:11:45;;;;;;;;;;;;;;;3.56;58.49;101634.69;6140790;23;19959;-82
2023/02/09 13:14:17;;;;;;;;;;;;;;;3.45;58.50;101625.53;6164855;23;19912;-82
2023/02/09 13:16:50;;;;;;;;;;;;;;;3.30;58.32;101626.53;6112973;23;19912;-83
2023/02/09 13:19:31;;;;;;;;;;;;;;;3.17;58.44;101627.63;6117634;23;19913;-82
2023/02/09 13:22:18;;;;;;;;;;;;;;;3.05;58.53;101616.72;6167654;23;19916;-82
2023/02/09 13:24:55;;;;;;;;;;;;;;;3.01;58.69;101623.38;6174832;23;20015;-82
2023/02/09 13:27:22;;;;;;;;;;;;;;;2.96;58.56;101619.72;6147476;23;19912;-79
2023/02/09 13:29:49;;;;;;;;;;;;;;;2.95;58.37;101617.03;6141275;23;19936;-84
2023/02/09 13:32:15;;;;;;;;;;;;;;;2.90;58.56;101618.47;6141460;23;20326;-85
2023/02/09 13:35:00;;;;;;;;;;;;;;;2.78;58.28;101618.72;6172514;23;19935;-82
2023/02/09 13:37:46;;;;;;;;;;;;;;;2.74;58.66;101616.84;6123894;23;19912;-84
2023/02/09 13:40:18;;;;;;;;;;;;;;;2.77;58.63;101602.44;6142180;23;19913;-82
2023/02/09 13:43:01;;;;;;;;;;;;;;;2.72;58.77;101609.03;6116223;23;19967;-82